Texas General Land Office
 Texas General Land Office
 George P. Bush, Commissioner

 Oil Spill Prevention
 & Response

Texas Automated Buoy System
Real Time Ocean Observations
Supporting Oil Spill Prevention and
Response since 1995
Geochemical and Environmental Research Group

NOAA - NDBC Buoy 42019 -- Texas Automated Buoy System

NBDC Buoy 42019
Freeport, TX
Conditions at 01/20/2019 17:30 UTC (01/20/2019 11:30 CST)
27° 54.7830'N   95° 21.6000'W
60nm South of Freeport, TX
Anemometer height: 5m
Water Depth: 269 feet (82 meters)
Wind: 7.0 m/s (13.6 kts)
          From 10°T (N)
Wind Gust: 9.00 m/s (17.5 kts) Pressure: 1028.8 mb (30.38 inHg)
Air Temp: 8°C (46 °F) Dewpoint: 4°C (39°F) Relative Humidity: 78%
Sea Surf Temp: 20 °C (68 °F) Wave Height: 1.4m (4.6 ft) Wave Period: 6
  


IMPORTANT: Notice to Mariners


   Date      Time    Speed     Dir   Gust    AtmPr   AirT   DewPt   WaterT  RelH  WvHt  WvPer
          |  (UTC) | (m/s) |  (°T) | (m/s) |  (mb) |  (°C) |  (°C) |  (°C) | (%) | (m) | (s) |
==========+========+=======+=======+=======+=======+=======+=======+=======+=====+=====+=====+
01/20/2019 00:00:00    13.0     330    17.0 1019.60    14.5     6.1    20.1    57 -99.0  -99
01/20/2019 00:10:00    13.0     320    17.0 1019.90    14.4     6.0    20.1    57 -99.0  -99
01/20/2019 00:20:00    13.0     320    17.0 1020.00    14.5     6.3    20.1    57 -99.0  -99
01/20/2019 00:30:00    14.0     330    17.0 1020.00    14.4     6.2    20.1    57 -99.0  -99
01/20/2019 00:40:00    14.0     330    17.0 1020.50    14.4     6.4    20.1    58 -99.0  -99
01/20/2019 00:50:00    13.0     330    18.0 1020.70    14.4     6.7    20.1    59   2.7    7
01/20/2019 01:00:00    15.0     330    19.0 1021.10    14.1     6.0    20.1    58 -99.0  -99
01/20/2019 01:10:00    15.0     330    19.0  -99.00    14.1     6.1    20.1    58 -99.0  -99
01/20/2019 01:20:00    14.0     330    17.0 1021.60    13.8     5.4    20.1    56 -99.0  -99
01/20/2019 01:30:00    14.0     330    18.0 1021.90    13.8     5.2    20.1    56 -99.0  -99
01/20/2019 01:40:00    14.0     330    18.0 1022.00    13.6     5.1    20.1    56 -99.0  -99
01/20/2019 01:50:00    15.0     330    18.0 1022.30    13.5     4.8    20.1    55 -99.0  -99
01/20/2019 02:00:00    15.0     330    19.0 1022.60    13.5     5.2    20.1    57 -99.0  -99
01/20/2019 02:10:00    15.0     340    19.0 1022.70    13.5     5.2    20.1    57 -99.0  -99
01/20/2019 02:20:00    15.0     330    19.0 1023.00    13.2     5.1    20.1    57 -99.0  -99
01/20/2019 02:30:00    15.0     340    18.0 1023.10    13.2     5.3   -99.0    58 -99.0  -99
01/20/2019 02:40:00    14.0     340    17.0 1023.40    13.0     5.1    20.1    58 -99.0  -99
01/20/2019 02:50:00    14.0     340    17.0 1023.40    13.0     5.3    20.1    59   2.9    7
01/20/2019 03:00:00    14.0     340    19.0 1023.50    12.7     5.0    20.1    59 -99.0  -99
01/20/2019 03:10:00    14.0     340    20.0 1023.60    12.5     4.7    20.0    58 -99.0  -99
01/20/2019 03:20:00    14.0     340    17.0 1023.70    12.5     5.0    20.0    60 -99.0  -99
01/20/2019 03:30:00    15.0     340    18.0 1023.60    12.5     5.1    20.1    60 -99.0  -99
01/20/2019 03:40:00    16.0     340    20.0 1023.90    12.3     4.4    20.0    58 -99.0  -99
01/20/2019 03:50:00    15.0     340    18.0 1024.00    12.0     4.5    20.0    60   3.1    7
01/20/2019 04:00:00    15.0     340    19.0 1024.20    11.8     4.4    20.1    60 -99.0  -99
01/20/2019 04:10:00    15.0     340    20.0 1024.20    11.6     3.8    20.0    58 -99.0  -99
01/20/2019 04:20:00    15.0     340    20.0 1024.30    11.5     3.8    20.0    59 -99.0  -99
01/20/2019 04:30:00    15.0     340    19.0 1024.50    11.2     3.1    20.0    57 -99.0  -99
01/20/2019 04:40:00    14.0     340    18.0 1024.80    11.2     3.7    20.0    59 -99.0  -99
01/20/2019 04:50:00    14.0     340    20.0 1025.00    11.2     3.9    20.0    60   3.1    7
01/20/2019 05:00:00    14.0     340    17.0 1025.10    11.0     3.5    20.0    59 -99.0  -99
01/20/2019 05:10:00    14.0     340    18.0 1025.40    10.8     3.2    20.0    59 -99.0  -99
01/20/2019 05:20:00    13.0     340    17.0 1025.30    10.7     3.1    20.0    59 -99.0  -99
01/20/2019 05:30:00    13.0     330    16.0 1025.30    10.6     3.0    20.0    59 -99.0  -99
01/20/2019 05:40:00    13.0     340    16.0 1025.10    10.6     3.1    20.0    59 -99.0  -99
01/20/2019 05:50:00    13.0     340    16.0 1024.90    10.6     3.4    20.0    61   3.0    7
01/20/2019 06:00:00    12.0     340    16.0 1024.80    10.6     3.6   -99.0    61 -99.0  -99
01/20/2019 06:10:00    13.0     340    17.0 1024.60    10.5     3.6    20.0    62 -99.0  -99
01/20/2019 06:20:00    12.0     340    15.0 1024.60    10.3     3.3    20.0    61 -99.0  -99
01/20/2019 06:30:00    12.0     340    15.0 1024.50    10.5     3.8    20.0    63 -99.0  -99
01/20/2019 06:40:00    12.0     330    15.0 1024.70    10.2     3.2    20.0    61 -99.0  -99
01/20/2019 06:50:00    12.0     340    15.0 1024.60    10.2     3.4    20.0    62   2.5    7
01/20/2019 07:00:00    13.0     330    17.0  -99.00    10.2     3.3    20.0    62 -99.0  -99
01/20/2019 07:10:00    13.0     340    17.0 1025.00    10.1     3.4    20.0    63 -99.0  -99
01/20/2019 07:20:00    13.0     340    17.0 1025.00    10.1     3.4    20.0    63 -99.0  -99
01/20/2019 07:30:00    13.0     340    17.0 1025.10    10.1     3.8    20.0    64 -99.0  -99
01/20/2019 07:40:00    13.0     330    16.0 1025.20    10.0     4.1    20.0    66   2.3  -99
01/20/2019 07:50:00    13.0     330    16.0 1025.20     9.9     4.4    20.0    68   2.3    7
01/20/2019 08:00:00    13.0     340    17.0 1025.10     9.8     4.4    20.0    69 -99.0  -99
01/20/2019 08:10:00    13.0     340    17.0 1025.20     9.9     4.8    20.0    70 -99.0  -99
01/20/2019 08:20:00    13.0     340    17.0 1025.40     9.8     4.7    20.0    70 -99.0  -99
01/20/2019 08:30:00    14.0     340    17.0 1025.40     9.6     4.4    20.1    70 -99.0  -99
01/20/2019 08:40:00    13.0     340    17.0 1025.50     9.5     4.3   -99.0    69 -99.0  -99
01/20/2019 08:50:00    12.0     350    16.0 1025.80     9.5     4.5    20.0    70   2.5    6
01/20/2019 09:00:00    12.0     350    15.0 1025.70     9.3     4.3    19.9    70 -99.0  -99
01/20/2019 09:10:00    12.0     350    14.0 1025.70     9.3     4.4    19.9    71 -99.0  -99
01/20/2019 09:20:00    12.0     350    16.0 1025.80     9.1     4.2    20.0    71 -99.0  -99
01/20/2019 09:30:00    11.0     340    14.0 1026.00     9.2     4.6    20.0    72 -99.0  -99
01/20/2019 09:40:00    12.0     350    15.0 1026.00     9.2     4.6    20.0    72 -99.0  -99
01/20/2019 09:50:00    12.0     350    15.0 1026.20     9.1     4.5    20.0    72   2.4    7
01/20/2019 10:00:00    12.0     350    16.0 1026.40     8.9     4.2    20.0    72 -99.0  -99
01/20/2019 10:10:00    12.0     340    16.0 1026.20     8.9     4.2    19.9    72 -99.0  -99
01/20/2019 10:20:00    12.0     340    15.0 1026.10     8.9     4.4    20.0    73 -99.0  -99
01/20/2019 10:30:00    12.0     350    15.0 1026.10     8.8     4.4    20.0    73 -99.0  -99
01/20/2019 10:40:00    12.0     350    15.0 1026.20     8.5     3.7    20.0    71 -99.0  -99
01/20/2019 10:50:00    11.0     350    14.0 1026.30     8.6     3.8    20.0    71   2.4    7
01/20/2019 11:00:00    11.0     350    14.0 1026.40     8.5     3.9   -99.0    72 -99.0  -99
01/20/2019 11:10:00    11.0     340    14.0 1026.40     8.4     3.4    20.0    70 -99.0  -99
01/20/2019 11:20:00    11.0     360    13.0 1026.50     8.4     3.4    20.0    70 -99.0  -99
01/20/2019 11:30:00    11.0     350    14.0 1026.40     8.5     3.5    20.0    70 -99.0  -99
01/20/2019 11:40:00    10.0     350    14.0 1026.50     8.3     2.9    20.0    68 -99.0  -99
01/20/2019 11:50:00    10.0     350    13.0 1026.60     8.2     2.9    20.1    69   2.2    7
01/20/2019 12:00:00    10.0     350    12.0 1026.80     8.2     3.1   -99.0    70 -99.0  -99
01/20/2019 12:10:00     9.0     350    12.0 1026.70     8.3     3.5    20.1    71 -99.0  -99
01/20/2019 12:20:00     9.0     350    11.0 1026.70     8.1     3.0    20.2    70 -99.0  -99
01/20/2019 12:30:00     8.0     350    12.0 1026.90     8.1     3.5    20.1    72 -99.0  -99
01/20/2019 12:40:00     8.0     350    12.0 1027.20     8.0     3.4    20.2    72   1.9  -99
01/20/2019 12:50:00     9.0     350    12.0 1027.30     8.0     3.4    20.2    72   1.9    6
01/20/2019 13:00:00     9.0     350    11.0 1027.30     8.1     3.6    20.3    73 -99.0  -99
01/20/2019 13:10:00     9.0     340    12.0  -99.00     8.0     3.6    20.2    73 -99.0  -99
01/20/2019 13:20:00     9.0     340    12.0 1027.80     7.9     3.4    20.3    73 -99.0  -99
01/20/2019 13:30:00    10.0     330    13.0  -99.00     7.9     3.6    20.2    74 -99.0  -99
01/20/2019 13:40:00     9.0     350    12.0 1028.00     7.6     3.3    20.2    74 -99.0  -99
01/20/2019 13:50:00     9.0     340    12.0 1028.00     7.9     3.9    20.2    75   1.8    6
01/20/2019 14:00:00     9.0     340    12.0 1028.10     7.7     3.8   -99.0    76 -99.0  -99
01/20/2019 14:10:00     9.0     340    12.0 1028.10     7.5     3.5    20.1    75 -99.0  -99
01/20/2019 14:20:00     9.0     350    11.0 1028.40     7.6     3.9    20.2    77 -99.0  -99
01/20/2019 14:30:00     9.0     340    12.0 1028.30     7.3     3.6    20.1    77 -99.0  -99
01/20/2019 14:40:00     9.0     350    12.0 1028.40     7.6     4.3    20.1    79 -99.0  -99
01/20/2019 14:50:00     9.0     350    11.0 1028.60     7.4     3.9    20.1    78   1.6    6
01/20/2019 15:00:00     9.0     350    12.0 1028.70     7.3     3.9    20.1    78 -99.0  -99
01/20/2019 15:10:00     9.0     350    11.0 1028.70     7.2     3.4    20.1    76 -99.0  -99
01/20/2019 15:20:00     9.0     350    11.0 1028.70     7.4     3.9    20.2    78 -99.0  -99
01/20/2019 15:30:00     8.0     360    11.0 1028.80     7.0     3.2   -99.0    76 -99.0  -99
01/20/2019 15:40:00     7.0     350     9.0 1029.00     7.2     3.7    20.1    78 -99.0  -99
01/20/2019 15:50:00     7.0     350    10.0 1029.10     7.2     3.7    20.1    78   1.6    6
01/20/2019 16:00:00     7.0     360    11.0 1029.20     7.2     3.7    20.2    78 -99.0  -99
01/20/2019 16:10:00     7.0     360    10.0 1029.30     7.3     3.8    20.2    78 -99.0  -99
01/20/2019 16:20:00     7.0     360    10.0 1029.40     7.5     4.1    20.1    79 -99.0  -99
01/20/2019 16:30:00     7.0     360     9.0 1029.20     7.3     3.7    20.1    77 -99.0  -99
01/20/2019 16:40:00     7.0      10    10.0 1029.20     7.4     4.0    20.2    79 -99.0  -99
01/20/2019 16:50:00     7.0      10    10.0 1029.20     7.3     3.9    20.2    78   1.4    6
01/20/2019 17:00:00     8.0      10    10.0 1029.00     7.5     4.0    20.2    78 -99.0  -99
01/20/2019 17:10:00     7.0      10    10.0 1029.10     7.5     4.0    20.2    78 -99.0  -99
01/20/2019 17:20:00     7.0      10    10.0 1029.00     7.6     4.1    20.2    78 -99.0  -99
01/20/2019 17:30:00     7.0      10     9.0 1028.80     7.6     4.1    20.2    78 -99.0  -99